Time;durP1;ratioP1;P1;durP2;ratioP2;P2;SDS_P1;SDS_P2;PMS_P1;PMS_P2;Temp;Humidity;BMP_temperature;BMP_pressure;BME280_temperature;BME280_humidity;BME280_pressure;Samples;Min_cycle;Max_cycle;Signal;HPM_P1;HPM_P2
2023/05/30 00:00:50;;;;;;;9.25;4.63;;;18.80;59.00;;;;;;5115174;28;20103;-71
2023/05/30 00:03:17;;;;;;;6.82;4.00;;;18.80;59.50;;;;;;5114630;28;20039;-71
2023/05/30 00:05:43;;;;;;;7.82;4.80;;;18.80;59.30;;;;;;5115090;28;20528;-70
2023/05/30 00:08:08;;;;;;;8.90;4.22;;;18.70;59.60;;;;;;5114758;28;20035;-70
2023/05/30 00:10:34;;;;;;;9.38;3.92;;;18.70;60.00;;;;;;5114161;28;20467;-72
2023/05/30 00:13:00;;;;;;;8.43;4.63;;;18.60;60.10;;;;;;5115259;28;20023;-71
2023/05/30 00:15:26;;;;;;;7.03;3.72;;;18.60;59.70;;;;;;5114539;28;20451;-71
2023/05/30 00:17:52;;;;;;;8.48;4.60;;;18.60;59.80;;;;;;5114833;28;20028;-70
2023/05/30 00:20:19;;;;;;;6.70;3.67;;;18.60;60.20;;;;;;5114369;28;20029;-72
2023/05/30 00:22:45;;;;;;;7.85;4.07;;;18.50;60.40;;;;;;5114692;28;20032;-71
2023/05/30 00:25:11;;;;;;;6.80;4.55;;;18.50;60.30;;;;;;5114808;28;20024;-71
2023/05/30 00:27:36;;;;;;;8.70;4.30;;;18.50;60.00;;;;;;5114728;28;20100;-71
2023/05/30 00:30:02;;;;;;;5.75;3.95;;;18.50;60.20;;;;;;5114390;28;20476;-71
2023/05/30 00:32:28;;;;;;;6.65;4.40;;;18.50;60.40;;;;;;5114170;28;20344;-71
2023/05/30 00:34:54;;;;;;;4.75;3.80;;;18.50;60.70;;;;;;5114252;28;20020;-71
2023/05/30 00:37:19;;;;;;;8.45;4.18;;;18.40;61.00;;;;;;5114088;28;20023;-70
2023/05/30 00:39:46;;;;;;;7.13;3.80;;;18.30;61.20;;;;;;5114342;28;20024;-72
2023/05/30 00:42:11;;;;;;;7.80;4.20;;;18.30;61.40;;;;;;5114295;28;20072;-72
2023/05/30 00:44:37;;;;;;;7.70;4.55;;;18.30;61.90;;;;;;5113612;28;20024;-72
2023/05/30 00:47:03;;;;;;;6.50;4.05;;;18.30;62.10;;;;;;5112877;28;20447;-71
2023/05/30 00:49:29;;;;;;;7.63;3.80;;;18.20;62.50;;;;;;5113843;28;20027;-72
2023/05/30 00:51:55;;;;;;;7.57;4.68;;;18.20;62.80;;;;;;5114164;28;20051;-71
2023/05/30 00:54:22;;;;;;;9.77;3.97;;;18.20;62.90;;;;;;5113786;28;20031;-72
2023/05/30 00:56:48;;;;;;;7.72;3.90;;;18.10;63.20;;;;;;5114250;28;20372;-71
2023/05/30 00:59:14;;;;;;;4.97;3.70;;;18.00;63.20;;;;;;5114100;28;20031;-71
2023/05/30 01:01:43;;;;;;;6.10;3.90;;;18.00;63.10;;;;;;5113864;28;20437;-71
2023/05/30 01:04:10;;;;;;;5.15;3.60;;;18.00;63.40;;;;;;5113865;28;20501;-71
2023/05/30 01:06:37;;;;;;;7.75;4.15;;;17.90;62.80;;;;;;5113572;28;20028;-71
2023/05/30 01:09:04;;;;;;;11.10;4.28;;;17.90;62.50;;;;;;5113939;28;20020;-71
2023/05/30 01:12:03;;;;;;;6.00;4.00;;;17.90;62.30;;;;;;5113366;28;20079;-71
2023/05/30 01:14:41;;;;;;;6.13;4.13;;;17.90;62.10;;;;;;5113168;28;20087;-71
2023/05/30 01:17:24;;;;;;;7.47;4.28;;;17.90;62.50;;;;;;5113768;28;20024;-71
2023/05/30 01:20:10;;;;;;;7.00;3.22;;;17.90;62.00;;;;;;5113687;28;20373;-72
2023/05/30 01:23:15;;;;;;;7.38;3.40;;;17.80;62.20;;;;;;5112589;28;20639;-72
2023/05/30 01:26:18;;;;;;;6.50;3.25;;;17.90;62.10;;;;;;5103885;28;20038;-70
2023/05/30 01:28:46;;;;;;;7.68;3.80;;;17.90;62.30;;;;;;5113808;28;20052;-71
2023/05/30 01:31:12;;;;;;;6.93;4.18;;;17.80;62.50;;;;;;5113565;28;20379;-71
2023/05/30 01:33:39;;;;;;;10.32;3.95;;;17.80;62.70;;;;;;5113129;28;20023;-71
2023/05/30 01:36:06;;;;;;;8.57;3.53;;;17.80;62.70;;;;;;5113370;28;20372;-71
2023/05/30 01:38:32;;;;;;;6.88;3.58;;;17.80;62.60;;;;;;5113098;28;20016;-71
2023/05/30 01:41:00;;;;;;;6.45;3.58;;;17.70;62.50;;;;;;5113451;28;20035;-71
2023/05/30 01:44:03;;;;;;;6.38;3.42;;;17.70;62.70;;;;;;5112531;28;20050;-71
2023/05/30 01:46:34;;;;;;;7.55;4.00;;;17.70;62.80;;;;;;5112449;28;20109;-71
2023/05/30 01:49:21;;;;;;;6.85;4.05;;;17.70;62.50;;;;;;5113126;28;20117;-71
2023/05/30 01:52:05;;;;;;;9.43;4.07;;;17.70;62.60;;;;;;5113384;28;20031;-71
2023/05/30 01:54:33;;;;;;;6.32;4.07;;;17.70;62.70;;;;;;5112799;28;20468;-71
2023/05/30 01:57:12;;;;;;;5.78;3.90;;;17.60;62.70;;;;;;5113858;28;20027;-70
2023/05/30 01:59:39;;;;;;;10.50;4.00;;;17.50;63.00;;;;;;5113779;28;20027;-70
2023/05/30 02:02:06;;;;;;;6.57;3.97;;;17.60;63.10;;;;;;5116141;28;20067;-70
2023/05/30 02:04:31;;;;;;;4.90;3.60;;;17.60;63.20;;;;;;5117621;28;20047;-71
2023/05/30 02:06:57;;;;;;;6.43;4.10;;;17.50;63.50;;;;;;5113070;28;20070;-70
2023/05/30 02:09:25;;;;;;;8.07;3.63;;;17.50;64.00;;;;;;5112349;28;20062;-71
2023/05/30 02:11:50;;;;;;;8.73;3.97;;;17.50;63.80;;;;;;5113022;28;20092;-71
2023/05/30 02:14:16;;;;;;;6.90;3.80;;;17.40;64.20;;;;;;5112689;28;20379;-70
2023/05/30 02:16:41;;;;;;;9.40;3.90;;;17.40;64.40;;;;;;5112635;28;20020;-71
2023/05/30 02:19:08;;;;;;;5.90;4.00;;;17.40;64.20;;;;;;5112688;28;20030;-71
2023/05/30 02:21:33;;;;;;;10.65;3.65;;;17.40;64.30;;;;;;5112289;28;20027;-71
2023/05/30 02:23:59;;;;;;;6.53;3.97;;;17.30;64.60;;;;;;5112985;28;20054;-71
2023/05/30 02:26:26;;;;;;;5.90;3.40;;;17.30;64.20;;;;;;5112366;28;20023;-71
2023/05/30 02:28:51;;;;;;;7.25;3.80;;;17.30;64.50;;;;;;5112736;28;20026;-70
2023/05/30 02:31:17;;;;;;;7.47;3.97;;;17.30;64.50;;;;;;5112892;28;20027;-70
2023/05/30 02:33:43;;;;;;;8.48;4.35;;;17.30;64.30;;;;;;5113614;28;20028;-71
2023/05/30 02:36:09;;;;;;;10.52;3.22;;;17.20;64.60;;;;;;5116848;28;20028;-71
2023/05/30 02:38:35;;;;;;;7.25;3.83;;;17.30;64.80;;;;;;5116436;28;20031;-70
2023/05/30 02:41:01;;;;;;;6.75;3.65;;;17.20;64.50;;;;;;5116949;28;20460;-70
2023/05/30 02:43:26;;;;;;;8.48;3.53;;;17.20;64.30;;;;;;5116176;28;20035;-71
2023/05/30 02:45:52;;;;;;;8.25;3.65;;;17.20;64.80;;;;;;5114936;28;20506;-70
2023/05/30 02:48:18;;;;;;;8.60;3.50;;;17.20;64.70;;;;;;5116502;28;20428;-71
2023/05/30 02:50:44;;;;;;;12.52;4.40;;;17.20;64.60;;;;;;5116188;27;20032;-70
2023/05/30 02:53:09;;;;;;;8.43;3.67;;;17.20;64.70;;;;;;5116488;28;20517;-70
2023/05/30 02:55:35;;;;;;;5.88;3.95;;;17.20;65.10;;;;;;5115784;28;20539;-71
2023/05/30 02:58:01;;;;;;;6.00;4.10;;;17.20;65.00;;;;;;5116574;28;20102;-70
2023/05/30 03:00:27;;;;;;;6.47;3.40;;;17.20;65.60;;;;;;5116270;28;20070;-71
2023/05/30 03:02:54;;;;;;;9.98;3.97;;;17.10;65.30;;;;;;5116188;28;20122;-71
2023/05/30 03:05:20;;;;;;;6.70;4.00;;;17.20;65.00;;;;;;5116289;28;20024;-71
2023/05/30 03:07:46;;;;;;;7.50;4.25;;;17.20;64.70;;;;;;5115543;28;20047;-71
2023/05/30 03:10:12;;;;;;;7.65;3.90;;;17.10;64.90;;;;;;5116296;28;20066;-71
2023/05/30 03:12:38;;;;;;;6.22;3.67;;;17.10;64.90;;;;;;5115742;28;20031;-71
2023/05/30 03:15:06;;;;;;;16.10;4.30;;;17.20;65.00;;;;;;5116487;28;20110;-71
2023/05/30 03:17:32;;;;;;;7.13;3.80;;;17.20;64.60;;;;;;5115223;28;20024;-71
2023/05/30 03:19:58;;;;;;;11.75;3.95;;;17.20;64.80;;;;;;5115962;28;20031;-71
2023/05/30 03:22:23;;;;;;;8.40;3.75;;;17.20;64.70;;;;;;5115823;28;20384;-70
2023/05/30 03:24:49;;;;;;;8.57;4.20;;;17.20;64.90;;;;;;5115570;28;20468;-70
2023/05/30 03:27:15;;;;;;;7.50;3.85;;;17.20;65.50;;;;;;5115945;28;20073;-70
2023/05/30 03:29:41;;;;;;;7.90;3.90;;;17.20;65.30;;;;;;5115477;28;20447;-71
2023/05/30 03:32:07;;;;;;;6.60;3.65;;;17.20;65.30;;;;;;5115692;28;20043;-70
2023/05/30 03:34:33;;;;;;;5.88;3.88;;;17.20;65.20;;;;;;5115557;28;20053;-71
2023/05/30 03:36:59;;;;;;;10.02;4.15;;;17.20;65.60;;;;;;5115407;28;20099;-70
2023/05/30 03:39:25;;;;;;;10.70;4.18;;;17.10;65.40;;;;;;5115537;28;20062;-70
2023/05/30 03:41:51;;;;;;;6.03;3.72;;;17.20;65.30;;;;;;5115468;28;20516;-71
2023/05/30 03:44:16;;;;;;;8.75;3.53;;;17.20;65.00;;;;;;5115536;28;20027;-71
2023/05/30 03:46:42;;;;;;;6.95;3.83;;;17.20;65.00;;;;;;5114167;28;20075;-71
2023/05/30 03:49:07;;;;;;;9.65;3.90;;;17.20;64.50;;;;;;5115176;28;20026;-71
2023/05/30 03:51:35;;;;;;;11.13;4.25;;;17.20;64.70;;;;;;5115018;28;20055;-71
2023/05/30 03:54:01;;;;;;;7.90;4.20;;;17.30;64.10;;;;;;5115416;28;20073;-70
2023/05/30 03:56:27;;;;;;;10.07;4.40;;;17.30;64.60;;;;;;5114885;28;20023;-74
2023/05/30 03:58:52;;;;;;;7.47;4.20;;;17.30;65.50;;;;;;5115330;28;20091;-71
2023/05/30 04:01:18;;;;;;;7.03;3.80;;;17.30;65.20;;;;;;5115261;28;20106;-71
2023/05/30 04:03:44;;;;;;;4.95;3.67;;;17.30;64.20;;;;;;5114655;28;20495;-70
2023/05/30 04:06:10;;;;;;;8.40;4.20;;;17.30;64.80;;;;;;5115240;28;20114;-70
2023/05/30 04:08:42;;;;;;;9.23;4.28;;;17.40;64.60;;;;;;5114672;28;20379;-71
2023/05/30 04:11:08;;;;;;;8.35;3.65;;;17.40;64.40;;;;;;5117636;28;20023;-70
2023/05/30 04:13:34;;;;;;;7.95;3.97;;;17.40;64.40;;;;;;5114736;28;20440;-70
2023/05/30 04:16:00;;;;;;;9.50;3.97;;;17.40;64.80;;;;;;5114941;27;20027;-70
2023/05/30 04:18:26;;;;;;;7.00;4.60;;;17.50;64.70;;;;;;5114725;28;20027;-70
2023/05/30 04:20:51;;;;;;;7.65;3.80;;;17.50;64.20;;;;;;5114428;28;20019;-70
2023/05/30 04:23:17;;;;;;;8.95;3.97;;;17.50;64.20;;;;;;5114513;28;20043;-70
2023/05/30 04:25:44;;;;;;;12.45;4.32;;;17.60;63.60;;;;;;5114702;28;20028;-70
2023/05/30 04:28:16;;;;;;;8.40;3.63;;;17.60;63.90;;;;;;5114575;28;20034;-70
2023/05/30 04:30:48;;;;;;;9.65;4.20;;;17.60;63.70;;;;;;5114249;28;20028;-71
2023/05/30 04:33:15;;;;;;;7.90;3.45;;;17.70;62.80;;;;;;5114851;28;20027;-70
2023/05/30 04:35:42;;;;;;;12.23;4.20;;;17.70;62.60;;;;;;5114252;28;20077;-71
2023/05/30 04:38:09;;;;;;;12.35;4.63;;;17.80;62.00;;;;;;5114199;28;20140;-71
2023/05/30 04:40:36;;;;;;;7.45;3.88;;;17.80;62.30;;;;;;5113929;28;20028;-71
2023/05/30 04:43:02;;;;;;;8.10;4.20;;;17.90;63.20;;;;;;5114270;28;20448;-70
2023/05/30 04:45:29;;;;;;;7.75;3.72;;;18.00;63.30;;;;;;5114445;28;20097;-71
2023/05/30 04:47:55;;;;;;;7.35;4.07;;;18.00;62.60;;;;;;5112769;28;20135;-69
2023/05/30 04:50:21;;;;;;;9.98;4.30;;;18.10;62.40;;;;;;5114295;28;20473;-71
2023/05/30 04:52:46;;;;;;;9.85;3.70;;;18.20;63.20;;;;;;5112988;28;20032;-70
2023/05/30 04:55:12;;;;;;;10.88;4.10;;;18.30;62.40;;;;;;5113942;28;20358;-70
2023/05/30 04:57:38;;;;;;;9.93;3.95;;;18.40;61.20;;;;;;5113712;28;20023;-71
2023/05/30 05:00:10;;;;;;;7.63;3.97;;;18.40;60.30;;;;;;5113283;28;20030;-71
2023/05/30 05:02:38;;;;;;;8.55;4.93;;;18.50;60.40;;;;;;5112401;28;20042;-71
2023/05/30 05:05:05;;;;;;;10.93;4.15;;;18.60;61.20;;;;;;5112636;28;20073;-70
2023/05/30 05:07:31;;;;;;;10.52;4.53;;;18.80;62.10;;;;;;5112453;28;20023;-70
2023/05/30 05:09:56;;;;;;;11.93;4.07;;;18.90;61.70;;;;;;5112543;28;20023;-72
2023/05/30 05:12:22;;;;;;;10.10;4.30;;;19.00;62.30;;;;;;5112533;28;20032;-71
2023/05/30 05:14:47;;;;;;;11.73;4.70;;;19.20;62.00;;;;;;5108664;28;20027;-71
2023/05/30 05:17:13;;;;;;;15.02;4.30;;;19.50;61.60;;;;;;5112279;28;20028;-72
2023/05/30 05:19:39;;;;;;;10.35;4.30;;;19.70;60.90;;;;;;5111236;28;20026;-72
2023/05/30 05:22:05;;;;;;;11.63;4.53;;;20.00;59.10;;;;;;5112226;28;20059;-72
2023/05/30 05:24:31;;;;;;;20.13;4.97;;;20.30;58.10;;;;;;5112833;28;20034;-70
2023/05/30 05:26:57;;;;;;;10.80;4.68;;;20.60;57.20;;;;;;5112796;28;20027;-71
2023/05/30 05:29:23;;;;;;;11.10;3.97;;;20.80;55.30;;;;;;5113098;28;20148;-71
2023/05/30 05:31:49;;;;;;;9.88;3.42;;;20.70;55.50;;;;;;5112694;28;20119;-72
2023/05/30 05:34:14;;;;;;;6.50;3.95;;;20.70;54.30;;;;;;5113077;28;20032;-72
2023/05/30 05:36:42;;;;;;;14.23;3.92;;;21.00;54.20;;;;;;5112726;28;20031;-71
2023/05/30 05:39:08;;;;;;;12.40;4.32;;;21.10;53.50;;;;;;5112720;28;20051;-71
2023/05/30 05:41:35;;;;;;;7.93;3.85;;;21.30;52.40;;;;;;5112547;28;20046;-73
2023/05/30 05:44:01;;;;;;;7.35;3.45;;;21.50;52.20;;;;;;5112779;28;20046;-71
2023/05/30 05:46:27;;;;;;;8.32;3.85;;;21.70;52.20;;;;;;5112144;28;20051;-71
2023/05/30 05:48:54;;;;;;;11.60;3.50;;;21.80;51.90;;;;;;5111731;28;20050;-72
2023/05/30 05:51:20;;;;;;;8.80;3.75;;;22.00;51.20;;;;;;5112735;28;20042;-71
2023/05/30 05:53:46;;;;;;;8.35;3.78;;;22.10;50.30;;;;;;5112681;28;20042;-72
2023/05/30 05:56:12;;;;;;;8.23;4.40;;;22.30;50.90;;;;;;5113046;28;20464;-72
2023/05/30 05:58:37;;;;;;;10.63;4.53;;;22.40;50.10;;;;;;5112867;28;20031;-72
2023/05/30 06:01:03;;;;;;;9.18;3.60;;;22.60;49.30;;;;;;5112434;28;20524;-72
2023/05/30 06:03:28;;;;;;;14.55;4.38;;;22.90;48.80;;;;;;5112606;28;20039;-71
2023/05/30 06:05:54;;;;;;;5.82;3.45;;;23.10;47.70;;;;;;5112277;28;20517;-72
2023/05/30 06:08:20;;;;;;;8.15;3.75;;;23.30;47.00;;;;;;5114215;28;20046;-71
2023/05/30 06:10:45;;;;;;;9.48;4.03;;;23.30;46.80;;;;;;5117783;28;20023;-72
2023/05/30 06:13:11;;;;;;;7.75;3.78;;;23.40;47.10;;;;;;5119463;28;20032;-72
2023/05/30 06:15:36;;;;;;;9.25;3.83;;;23.80;46.60;;;;;;5119662;28;20122;-72
2023/05/30 06:18:04;;;;;;;5.50;3.28;;;24.00;46.10;;;;;;5119151;27;20084;-72
2023/05/30 06:20:29;;;;;;;6.93;3.55;;;24.20;45.20;;;;;;5119560;28;20028;-71
2023/05/30 06:22:55;;;;;;;7.82;3.53;;;24.50;45.00;;;;;;5119298;28;20031;-72
2023/05/30 06:25:21;;;;;;;6.93;3.58;;;24.90;45.20;;;;;;5119236;28;20064;-71
2023/05/30 06:27:47;;;;;;;7.97;3.47;;;25.40;44.30;;;;;;5119082;28;20031;-72
2023/05/30 06:30:12;;;;;;;7.85;3.25;;;25.70;43.60;;;;;;5119602;28;20023;-72
2023/05/30 06:32:38;;;;;;;8.73;3.53;;;25.90;42.70;;;;;;5119512;28;20039;-71
2023/05/30 06:35:04;;;;;;;8.95;3.70;;;26.00;41.70;;;;;;5119892;27;20039;-71
2023/05/30 06:37:30;;;;;;;8.63;3.42;;;26.30;41.30;;;;;;5119467;28;20027;-71
2023/05/30 06:39:55;;;;;;;5.47;3.60;;;26.60;40.50;;;;;;5118946;28;20083;-71
2023/05/30 06:42:21;;;;;;;13.35;3.90;;;26.80;41.00;;;;;;5118019;28;20036;-71
2023/05/30 06:44:46;;;;;;;6.40;3.38;;;27.10;40.10;;;;;;5118678;28;20505;-71
2023/05/30 06:47:12;;;;;;;9.68;4.20;;;27.40;39.90;;;;;;5118932;28;20055;-71
2023/05/30 06:49:38;;;;;;;8.73;3.80;;;27.90;38.50;;;;;;5119259;28;20051;-71
2023/05/30 06:52:05;;;;;;;13.73;3.78;;;27.90;38.50;;;;;;5118786;27;20105;-71
2023/05/30 06:54:31;;;;;;;8.23;3.70;;;28.50;39.20;;;;;;5119267;28;20035;-72
2023/05/30 06:57:02;;;;;;;5.82;3.47;;;28.80;37.40;;;;;;5118724;28;20069;-71
2023/05/30 06:59:28;;;;;;;8.20;3.90;;;29.20;37.40;;;;;;5118920;27;20038;-71
2023/05/30 07:01:54;;;;;;;8.70;3.85;;;29.30;36.10;;;;;;5116942;28;20028;-72
2023/05/30 07:04:20;;;;;;;10.77;4.00;;;29.30;36.80;;;;;;5118352;28;20030;-71
2023/05/30 07:06:45;;;;;;;9.98;3.85;;;29.50;37.00;;;;;;5118734;28;20031;-71
2023/05/30 07:09:11;;;;;;;6.07;3.45;;;29.90;36.10;;;;;;5118751;28;20066;-71
2023/05/30 07:11:37;;;;;;;8.45;3.85;;;30.20;36.20;;;;;;5116833;28;20034;-71
2023/05/30 07:14:02;;;;;;;6.40;3.75;;;30.20;35.80;;;;;;5119644;28;20061;-71
2023/05/30 07:16:28;;;;;;;12.68;3.78;;;30.40;35.70;;;;;;5122359;28;20023;-71
2023/05/30 07:18:54;;;;;;;9.93;3.72;;;30.80;35.10;;;;;;5123389;28;20054;-71
2023/05/30 07:21:20;;;;;;;7.18;3.92;;;30.60;34.40;;;;;;5119348;28;20379;-71
2023/05/30 07:23:45;;;;;;;11.10;4.45;;;30.40;34.80;;;;;;5114640;28;20134;-71
2023/05/30 07:26:11;;;;;;;9.95;3.95;;;30.40;35.10;;;;;;5115891;28;20055;-71
2023/05/30 07:28:37;;;;;;;8.20;3.63;;;30.40;34.90;;;;;;5115846;28;20137;-71
2023/05/30 07:31:02;;;;;;;8.43;3.92;;;30.70;35.30;;;;;;5113855;28;20453;-71
2023/05/30 07:33:28;;;;;;;8.40;4.18;;;30.50;35.50;;;;;;5115623;28;20035;-73
2023/05/30 07:35:53;;;;;;;9.43;3.72;;;30.70;35.50;;;;;;5115217;28;20456;-71
2023/05/30 07:38:19;;;;;;;11.82;4.55;;;30.40;35.70;;;;;;5115299;28;20031;-71
2023/05/30 07:40:45;;;;;;;7.22;4.13;;;30.20;35.70;;;;;;5114967;28;20019;-74
2023/05/30 07:43:10;;;;;;;10.95;4.25;;;30.20;36.10;;;;;;5115359;28;20028;-72
2023/05/30 07:45:36;;;;;;;6.88;3.55;;;30.20;36.30;;;;;;5115381;28;20092;-72
2023/05/30 07:48:02;;;;;;;9.80;4.30;;;30.00;36.70;;;;;;5114614;28;20065;-72
2023/05/30 07:50:27;;;;;;;11.90;3.80;;;30.00;37.00;;;;;;5115062;28;20023;-72
2023/05/30 07:52:53;;;;;;;9.27;3.95;;;30.20;37.10;;;;;;5114708;28;20031;-71
2023/05/30 07:55:18;;;;;;;10.48;4.03;;;30.40;37.20;;;;;;5115308;28;20598;-72
2023/05/30 07:57:44;;;;;;;6.75;3.83;;;30.30;36.50;;;;;;5115245;28;20034;-71
2023/05/30 08:00:11;;;;;;;10.00;4.30;;;30.30;36.50;;;;;;5114961;28;20024;-72
2023/05/30 08:02:37;;;;;;;8.77;3.40;;;30.20;36.30;;;;;;5114811;28;20259;-72
2023/05/30 08:05:02;;;;;;;7.78;4.40;;;30.40;36.40;;;;;;5114436;28;20024;-72
2023/05/30 08:07:30;;;;;;;10.00;4.30;;;30.10;36.30;;;;;;5114933;28;20031;-72
2023/05/30 08:09:56;;;;;;;10.77;3.92;;;30.00;36.60;;;;;;5114530;28;20072;-72
2023/05/30 08:12:24;;;;;;;12.20;3.88;;;30.20;37.60;;;;;;5114749;28;20040;-72
2023/05/30 08:14:50;;;;;;;5.95;4.05;;;30.40;36.90;;;;;;5114731;28;20032;-72
2023/05/30 08:17:16;;;;;;;8.55;3.97;;;30.40;36.80;;;;;;5114827;28;20380;-72
2023/05/30 08:19:42;;;;;;;8.50;3.95;;;30.50;37.00;;;;;;5114670;28;20030;-72
2023/05/30 08:22:10;;;;;;;9.20;3.80;;;30.20;36.90;;;;;;5114372;28;20028;-71
2023/05/30 08:24:36;;;;;;;10.25;3.92;;;30.10;37.20;;;;;;5114678;28;20059;-72
2023/05/30 08:27:06;;;;;;;5.50;3.55;;;29.80;38.40;;;;;;5114221;27;20447;-72
2023/05/30 08:29:33;;;;;;;6.25;3.70;;;29.60;38.70;;;;;;5114528;27;20032;-71
2023/05/30 08:31:58;;;;;;;11.23;4.32;;;29.50;38.40;;;;;;5113735;28;20050;-71
2023/05/30 08:34:24;;;;;;;12.38;4.30;;;29.50;38.30;;;;;;5114324;28;20463;-71
2023/05/30 08:36:53;;;;;;;10.73;4.10;;;29.50;39.00;;;;;;5113949;28;20090;-72
2023/05/30 08:39:19;;;;;;;8.85;3.63;;;29.30;38.50;;;;;;5114278;28;20030;-71
2023/05/30 08:41:45;;;;;;;12.43;4.07;;;28.80;39.20;;;;;;5114074;28;20032;-71
2023/05/30 08:44:11;;;;;;;12.25;4.40;;;28.60;39.30;;;;;;5113513;28;20453;-71
2023/05/30 08:46:42;;;;;;;6.80;3.70;;;28.40;39.60;;;;;;5114413;28;20165;-71
2023/05/30 08:49:13;;;;;;;11.50;4.28;;;28.30;40.20;;;;;;5113609;28;20464;-71
2023/05/30 08:51:42;;;;;;;7.90;3.72;;;27.50;40.50;;;;;;5113950;28;20050;-71
2023/05/30 08:54:12;;;;;;;11.70;4.07;;;27.40;41.00;;;;;;5113527;28;20031;-70
2023/05/30 08:56:42;;;;;;;8.55;3.67;;;27.30;41.80;;;;;;5114193;28;20027;-70
2023/05/30 08:59:09;;;;;;;12.83;4.00;;;27.00;42.40;;;;;;5113433;28;20126;-73
2023/05/30 09:01:37;;;;;;;11.52;3.90;;;27.00;42.20;;;;;;5113612;28;20283;-73
2023/05/30 09:04:06;;;;;;;5.57;3.72;;;26.90;41.80;;;;;;5113375;28;20063;-72
2023/05/30 09:06:34;;;;;;;10.15;4.30;;;26.80;42.10;;;;;;5113748;28;20031;-72
2023/05/30 09:09:02;;;;;;;7.15;3.97;;;26.60;42.20;;;;;;5113455;28;20031;-72
2023/05/30 09:11:28;;;;;;;9.95;3.70;;;26.40;42.90;;;;;;5113647;28;20058;-70
2023/05/30 09:13:55;;;;;;;8.73;3.78;;;26.20;42.90;;;;;;5113083;28;20109;-72
2023/05/30 09:16:20;;;;;;;10.07;5.10;;;26.00;43.70;;;;;;5113822;28;20371;-71
2023/05/30 09:18:46;;;;;;;5.63;3.67;;;26.10;43.80;;;;;;5113618;28;20023;-71
2023/05/30 09:21:12;;;;;;;8.75;3.88;;;26.00;44.00;;;;;;5113283;28;20125;-72
2023/05/30 09:23:41;;;;;;;9.32;3.67;;;25.90;44.10;;;;;;5113168;28;20119;-71
2023/05/30 09:26:09;;;;;;;16.90;4.00;;;25.90;44.30;;;;;;5112658;28;20058;-72
2023/05/30 09:28:35;;;;;;;9.93;3.78;;;26.00;43.80;;;;;;5113427;28;20305;-72
2023/05/30 09:31:02;;;;;;;9.07;3.45;;;26.10;43.70;;;;;;5112689;28;20024;-72
2023/05/30 09:33:41;;;;;;;9.70;4.18;;;26.20;44.30;;;;;;5113729;28;20428;-72
2023/05/30 09:36:07;;;;;;;7.53;3.60;;;26.30;44.50;;;;;;5113057;28;20043;-72
2023/05/30 09:38:33;;;;;;;8.82;4.22;;;26.20;44.20;;;;;;5111655;28;20020;-70
2023/05/30 09:41:02;;;;;;;12.48;4.22;;;26.20;44.10;;;;;;5112587;28;20399;-71
2023/05/30 09:43:37;;;;;;;8.35;4.38;;;26.20;43.60;;;;;;5112528;28;20032;-71
2023/05/30 09:46:06;;;;;;;10.85;3.92;;;26.20;44.00;;;;;;5112491;28;20056;-72
2023/05/30 09:48:32;;;;;;;7.13;3.97;;;26.10;44.10;;;;;;5112893;28;20031;-70
2023/05/30 09:51:01;;;;;;;8.38;4.68;;;26.10;44.10;;;;;;5112358;28;20039;-72
2023/05/30 09:53:32;;;;;;;9.45;4.35;;;26.00;44.10;;;;;;5112725;28;20128;-71
2023/05/30 09:55:58;;;;;;;;;;;26.10;44.60;;;;;;5113017;28;20031;-72
2023/05/30 09:58:24;;;;;;;10.93;4.90;;;26.00;45.50;;;;;;5112842;28;19945;-72
2023/05/30 10:00:51;;;;;;;8.40;4.43;;;25.90;44.60;;;;;;5112968;28;20056;-72
2023/05/30 10:03:18;;;;;;;8.90;4.22;;;25.90;45.40;;;;;;5112289;28;20078;-72
2023/05/30 10:05:44;;;;;;;12.95;4.47;;;25.90;45.20;;;;;;5112860;28;20481;-72
2023/05/30 10:08:11;;;;;;;8.60;4.38;;;25.90;44.30;;;;;;5112362;28;20059;-72
2023/05/30 10:10:40;;;;;;;8.68;3.95;;;25.60;44.10;;;;;;5112870;28;20030;-72
2023/05/30 10:13:07;;;;;;;8.40;3.72;;;25.60;44.60;;;;;;5112758;28;20368;-72
2023/05/30 10:15:32;;;;;;;6.60;3.53;;;25.70;44.20;;;;;;5112826;28;20024;-72
2023/05/30 10:18:09;;;;;;;10.10;3.88;;;25.80;43.20;;;;;;5112488;28;20028;-72
2023/05/30 10:20:37;;;;;;;4.90;3.42;;;25.90;43.20;;;;;;5112723;28;20122;-72
2023/05/30 10:23:07;;;;;;;8.63;3.47;;;26.00;43.80;;;;;;5112224;28;20077;-72
2023/05/30 10:25:35;;;;;;;10.57;3.92;;;26.10;43.50;;;;;;5112632;28;20038;-72
2023/05/30 10:28:03;;;;;;;8.02;3.63;;;26.20;42.30;;;;;;5112197;28;20427;-72
2023/05/30 10:30:33;;;;;;;7.40;3.80;;;26.30;42.40;;;;;;5112396;28;20114;-72
2023/05/30 10:33:11;;;;;;;6.57;3.22;;;26.20;41.10;;;;;;5112138;28;20027;-72
2023/05/30 10:35:37;;;;;;;9.77;4.38;;;26.10;42.10;;;;;;5112533;28;20414;-72
2023/05/30 10:38:08;;;;;;;8.23;4.32;;;26.00;42.00;;;;;;5112158;28;20085;-72
2023/05/30 10:40:41;;;;;;;7.03;3.75;;;26.00;43.50;;;;;;5112492;28;20065;-72
2023/05/30 10:43:45;;;;;;;7.18;4.22;;;26.00;42.80;;;;;;5112082;28;20062;-72
2023/05/30 10:46:31;;;;;;;7.10;4.22;;;25.90;43.40;;;;;;5104055;28;20403;-72
2023/05/30 10:49:18;;;;;;;6.97;3.50;;;26.00;44.00;;;;;;5112234;28;20484;-72
2023/05/30 10:52:04;;;;;;;7.10;4.05;;;26.00;43.10;;;;;;5112327;28;20032;-71
2023/05/30 10:54:34;;;;;;;9.07;3.85;;;26.00;43.20;;;;;;5113288;28;20026;-72
2023/05/30 10:57:27;;;;;;;7.07;4.18;;;26.00;43.40;;;;;;5115916;28;20107;-73
2023/05/30 11:00:41;;;;;;;7.75;4.18;;;26.00;42.90;;;;;;5116574;28;20030;-72
2023/05/30 11:03:07;;;;;;;7.32;4.20;;;26.10;43.10;;;;;;5101206;28;20158;-72
2023/05/30 11:05:33;;;;;;;5.85;3.72;;;26.10;43.40;;;;;;5116492;28;20027;-72
2023/05/30 11:08:01;;;;;;;12.23;4.35;;;26.20;42.80;;;;;;5116398;28;20023;-72
2023/05/30 11:10:28;;;;;;;8.68;3.63;;;26.30;42.10;;;;;;5115984;28;20019;-70
2023/05/30 11:13:08;;;;;;;8.15;3.65;;;26.40;42.80;;;;;;5114412;28;20464;-72
2023/05/30 11:15:34;;;;;;;6.30;3.65;;;26.50;42.40;;;;;;5115941;28;20031;-71
2023/05/30 11:18:00;;;;;;;7.03;3.35;;;26.50;42.90;;;;;;5114201;28;20119;-71
2023/05/30 11:20:26;;;;;;;9.65;3.80;;;26.50;41.10;;;;;;5115896;28;20150;-70
2023/05/30 11:23:01;;;;;;;9.90;3.53;;;26.40;39.90;;;;;;5115678;28;20378;-70
2023/05/30 11:25:32;;;;;;;11.07;3.63;;;26.30;39.50;;;;;;5115519;28;20076;-70
2023/05/30 11:28:03;;;;;;;;;;;26.20;39.70;;;;;;5115961;28;20039;-72
2023/05/30 11:30:39;;;;;;;6.00;3.40;;;26.20;40.60;;;;;;5115739;28;19999;-70
2023/05/30 11:33:12;;;;;;;11.38;3.53;;;26.10;39.60;;;;;;5114212;28;20035;-71
2023/05/30 11:35:38;;;;;;;7.93;3.72;;;26.00;40.00;;;;;;5115350;28;20024;-71
2023/05/30 11:38:06;;;;;;;7.10;3.75;;;25.90;39.70;;;;;;5115120;28;20028;-71
2023/05/30 11:40:31;;;;;;;4.72;3.45;;;25.90;39.40;;;;;;5115459;28;20112;-71
2023/05/30 11:42:58;;;;;;;9.15;3.40;;;25.90;40.10;;;;;;5115644;28;20072;-71
2023/05/30 11:45:28;;;;;;;7.70;4.30;;;26.10;41.10;;;;;;5114698;28;20051;-71
2023/05/30 11:48:05;;;;;;;5.35;3.20;;;26.10;39.30;;;;;;5115455;28;20028;-70
2023/05/30 11:50:37;;;;;;;7.68;3.88;;;26.00;39.00;;;;;;5115496;28;20039;-71
2023/05/30 11:53:08;;;;;;;9.20;3.42;;;26.00;39.70;;;;;;5114982;28;20072;-70
2023/05/30 11:55:34;;;;;;;7.32;3.80;;;26.10;39.70;;;;;;5115399;28;20023;-70
2023/05/30 11:57:59;;;;;;;5.50;3.78;;;26.00;39.60;;;;;;5115311;28;20034;-70
2023/05/30 12:00:25;;;;;;;7.00;3.00;;;26.00;39.70;;;;;;5114891;28;20127;-71
2023/05/30 12:02:52;;;;;;;7.57;3.33;;;26.10;40.50;;;;;;5114216;28;20062;-70
2023/05/30 12:05:17;;;;;;;8.57;3.65;;;26.20;40.20;;;;;;5114692;28;20471;-71
2023/05/30 12:07:43;;;;;;;7.15;3.92;;;26.10;40.20;;;;;;5114418;28;20023;-71
2023/05/30 12:10:09;;;;;;;6.57;3.75;;;26.00;40.10;;;;;;5114598;28;20028;-72
2023/05/30 12:12:35;;;;;;;6.35;3.35;;;25.90;40.10;;;;;;5114887;28;20476;-72
2023/05/30 12:15:02;;;;;;;8.05;3.20;;;25.90;39.10;;;;;;5114578;28;20055;-72
2023/05/30 12:17:28;;;;;;;7.30;3.35;;;25.80;38.30;;;;;;5114411;28;20032;-71
2023/05/30 12:19:56;;;;;;;5.72;3.75;;;25.90;38.10;;;;;;5114753;28;20065;-71
2023/05/30 12:22:23;;;;;;;5.05;3.33;;;25.80;37.50;;;;;;5114259;28;20032;-71
2023/05/30 12:24:49;;;;;;;7.70;3.83;;;25.70;38.10;;;;;;5114831;28;20027;-71
2023/05/30 12:27:23;;;;;;;11.40;3.42;;;25.80;38.90;;;;;;5114788;28;20107;-71
2023/05/30 12:29:49;;;;;;;5.90;3.58;;;25.70;38.70;;;;;;5117590;28;20034;-70
2023/05/30 12:32:23;;;;;;;8.63;3.33;;;25.60;39.10;;;;;;5116097;28;20028;-71
2023/05/30 12:34:49;;;;;;;5.97;3.60;;;25.70;39.60;;;;;;5116215;28;20028;-71
2023/05/30 12:37:16;;;;;;;9.50;3.00;;;25.70;40.20;;;;;;5113758;28;20367;-71
2023/05/30 12:39:47;;;;;;;7.78;3.95;;;25.70;39.50;;;;;;5114158;28;20024;-70
2023/05/30 12:42:13;;;;;;;5.50;3.47;;;25.80;40.30;;;;;;5113786;28;20043;-71
2023/05/30 12:44:50;;;;;;;7.93;3.45;;;25.90;40.10;;;;;;5114216;28;20111;-71
2023/05/30 12:47:16;;;;;;;7.63;3.58;;;25.90;39.60;;;;;;5113337;28;20353;-71
2023/05/30 12:49:43;;;;;;;5.57;3.55;;;25.90;38.10;;;;;;5114148;28;20032;-70